Terminal Aerodrome Forecast
Issued by NWS

Home | Current Version | Previous Version | Text Only | Print | Product List | Glossary On
Versions: 1 2 3 4 5 6 7 8 9 10 11 12 13 14 15 16 17 18 19 20 21 22 23 24 25 26 27 28 29 30 31 32 33 34 35 36 37
000
FTPQ31 PGUM 312056 RRL
TAFTPN
TAF
PTPN 312056Z 3121/0118 05011KT P6SM -SHRA VCSH SCT016 BKN030 OVC120
      TEMPO 3122/0101 VRB08KT 4SM SHRA BKN016 BKN035 OVC080
     FM010300 05010KT P6SM VCSH SCT018 BKN040 BKN120=

USA.gov is the U.S. government's official web portal to all federal, state and local government web resources and services.